Time;durP1;ratioP1;P1;durP2;ratioP2;P2;SDS_P1;SDS_P2;PMS_P1;PMS_P2;Temp;Humidity;BMP_temperature;BMP_pressure;BME280_temperature;BME280_humidity;BME280_pressure;Samples;Min_cycle;Max_cycle;Signal;HPM_P1;HPM_P2
2021/10/05 00:01:46;;;;;;;22.48;7.43;;;30.20;85.40;;;;;;5103852;28;20316;-43
2021/10/05 00:04:13;;;;;;;24.17;6.68;;;30.20;85.40;;;;;;5102890;28;20032;-46
2021/10/05 00:06:40;;;;;;;38.05;8.00;;;30.20;85.40;;;;;;5103944;28;20027;-43
2021/10/05 00:09:07;;;;;;;31.67;7.20;;;30.20;85.50;;;;;;5102883;28;20308;-43
2021/10/05 00:11:33;;;;;;;28.10;6.60;;;30.10;85.50;;;;;;5103810;28;20020;-45
2021/10/05 00:14:00;;;;;;;27.33;6.72;;;30.20;85.60;;;;;;5104053;28;20200;-43
2021/10/05 00:16:27;;;;;;;26.02;6.05;;;30.10;85.60;;;;;;5103963;28;20043;-44
2021/10/05 00:18:54;;;;;;;24.40;6.30;;;30.10;85.70;;;;;;5103767;28;20032;-43
2021/10/05 00:21:21;;;;;;;27.20;5.90;;;30.10;85.80;;;;;;5103994;28;20076;-40
2021/10/05 00:23:48;;;;;;;23.98;6.43;;;30.10;85.80;;;;;;5104249;28;20039;-39
2021/10/05 00:26:15;;;;;;;21.08;6.53;;;30.10;85.90;;;;;;5103763;28;20216;-41
2021/10/05 00:28:41;;;;;;;26.25;7.35;;;30.10;86.00;;;;;;5104095;28;20035;-42
2021/10/05 00:31:09;;;;;;;24.65;6.63;;;30.10;86.10;;;;;;5103761;28;20024;-41
2021/10/05 00:33:35;;;;;;;23.65;7.10;;;30.10;86.20;;;;;;5102374;28;20069;-42
2021/10/05 00:36:02;;;;;;;16.85;5.90;;;30.10;86.20;;;;;;5103893;28;20039;-41
2021/10/05 00:38:29;;;;;;;14.45;5.60;;;30.10;86.30;;;;;;5103820;28;20027;-46
2021/10/05 00:40:56;;;;;;;21.98;5.93;;;30.10;86.40;;;;;;5103694;28;20016;-48
2021/10/05 00:43:24;;;;;;;21.52;5.63;;;30.10;86.40;;;;;;5103810;28;20039;-45
2021/10/05 00:45:50;;;;;;;14.70;5.28;;;30.10;86.40;;;;;;5103518;28;20031;-43
2021/10/05 00:48:17;;;;;;;18.65;5.32;;;30.00;86.30;;;;;;5103596;28;20020;-45
2021/10/05 00:50:44;;;;;;;15.60;4.72;;;30.00;86.30;;;;;;5103249;28;20389;-42
2021/10/05 00:53:12;;;;;;;13.90;4.70;;;30.00;86.20;;;;;;5103335;28;20028;-42
2021/10/05 00:55:39;;;;;;;17.73;4.75;;;30.00;86.20;;;;;;5103300;28;20325;-43
2021/10/05 00:58:06;;;;;;;16.70;5.53;;;30.10;86.20;;;;;;5103451;28;20024;-42
2021/10/05 01:00:33;;;;;;;14.75;4.55;;;30.00;86.20;;;;;;5105134;28;20023;-44
2021/10/05 01:03:00;;;;;;;14.70;4.63;;;30.00;86.20;;;;;;5107152;28;20106;-45
2021/10/05 01:05:26;;;;;;;13.55;4.18;;;30.00;86.20;;;;;;5106994;28;20054;-50
2021/10/05 01:07:53;;;;;;;13.50;4.30;;;30.00;86.20;;;;;;5107068;28;20035;-45
2021/10/05 01:10:20;;;;;;;18.98;4.70;;;30.00;86.10;;;;;;5107197;28;20308;-43
2021/10/05 01:12:51;;;;;;;9.68;4.15;;;30.00;86.20;;;;;;5106768;28;20103;-46
2021/10/05 01:15:24;;;;;;;14.48;4.10;;;30.00;86.10;;;;;;5107099;28;20055;-43
2021/10/05 01:17:52;;;;;;;12.85;4.72;;;30.00;86.10;;;;;;5106848;28;20020;-44
2021/10/05 01:20:19;;;;;;;17.70;4.60;;;30.00;86.60;;;;;;5106794;28;20016;-44
2021/10/05 01:22:46;;;;;;;10.25;3.88;;;30.00;85.90;;;;;;5106803;28;20032;-47
2021/10/05 01:25:15;;;;;;;16.38;4.45;;;29.90;85.80;;;;;;5106545;28;20019;-47
2021/10/05 01:28:00;;;;;;;12.75;5.47;;;29.90;85.80;;;;;;5105580;28;20070;-44
2021/10/05 01:30:26;;;;;;;18.35;5.97;;;29.90;85.70;;;;;;5105508;28;20031;-48
2021/10/05 01:32:53;;;;;;;13.55;5.95;;;29.90;85.70;;;;;;5105402;28;20058;-45
2021/10/05 01:35:20;;;;;;;11.35;5.80;;;29.90;85.60;;;;;;5106523;28;20012;-45
2021/10/05 01:37:46;;;;;;;15.07;5.75;;;29.90;85.60;;;;;;5106525;28;20028;-45
2021/10/05 01:40:14;;;;;;;14.07;5.05;;;29.90;85.60;;;;;;5106412;28;20016;-45
2021/10/05 01:42:40;;;;;;;10.38;5.47;;;29.90;85.50;;;;;;5106443;28;20043;-47
2021/10/05 01:45:08;;;;;;;10.70;5.25;;;29.90;85.50;;;;;;5106398;28;20028;-46
2021/10/05 01:47:35;;;;;;;12.77;5.10;;;29.90;85.50;;;;;;5106228;28;20019;-46
2021/10/05 01:50:02;;;;;;;15.07;6.22;;;29.90;85.40;;;;;;5105167;28;20020;-43
2021/10/05 01:52:29;;;;;;;10.27;5.55;;;29.90;85.40;;;;;;5106226;28;20012;-47
2021/10/05 01:54:56;;;;;;;11.35;5.07;;;29.90;85.40;;;;;;5106009;28;20019;-43
2021/10/05 01:57:24;;;;;;;12.57;4.75;;;29.90;85.40;;;;;;5106113;28;20349;-43
2021/10/05 01:59:50;;;;;;;12.85;5.20;;;29.90;85.30;;;;;;5105057;28;20019;-44
2021/10/05 02:02:17;;;;;;;13.73;4.70;;;29.90;85.20;;;;;;5105905;28;20032;-47
2021/10/05 02:04:45;;;;;;;11.48;4.47;;;29.90;85.20;;;;;;5106003;28;20069;-47
2021/10/05 02:07:12;;;;;;;8.32;4.22;;;29.90;85.10;;;;;;5106139;28;20020;-49
2021/10/05 02:09:39;;;;;;;16.83;4.75;;;29.80;85.00;;;;;;5106304;28;20091;-45
2021/10/05 02:12:06;;;;;;;11.00;4.10;;;29.90;84.90;;;;;;5105508;28;20076;-44
2021/10/05 02:14:33;;;;;;;10.13;4.45;;;29.80;84.80;;;;;;5106237;28;20035;-45
2021/10/05 02:16:59;;;;;;;13.40;4.32;;;29.80;84.70;;;;;;5105625;28;20323;-46
2021/10/05 02:19:26;;;;;;;11.55;4.68;;;29.80;84.60;;;;;;5106214;28;20169;-45
2021/10/05 02:21:53;;;;;;;11.82;4.20;;;29.80;84.60;;;;;;5105721;28;20308;-43
2021/10/05 02:26:51;;;;;;;17.95;4.60;;;29.80;85.00;;;;;;5105660;28;20024;-43
2021/10/05 02:29:20;;;;;;;16.35;4.55;;;29.80;85.40;;;;;;5106157;28;20087;-46
2021/10/05 02:31:46;;;;;;;19.83;4.80;;;29.80;85.70;;;;;;5105460;28;20090;-46
2021/10/05 02:34:13;;;;;;;13.60;4.25;;;29.80;85.80;;;;;;5105372;28;20228;-43
2021/10/05 02:36:41;;;;;;;10.73;3.90;;;29.80;86.40;;;;;;5104072;28;20028;-44
2021/10/05 02:39:08;;;;;;;10.85;4.60;;;29.80;86.10;;;;;;5105696;28;20031;-41
2021/10/05 02:41:35;;;;;;;9.27;4.40;;;29.70;86.10;;;;;;5105539;28;20228;-39
2021/10/05 02:44:02;;;;;;;8.32;4.50;;;29.70;86.20;;;;;;5105671;28;20052;-39
2021/10/05 02:46:28;;;;;;;9.23;4.15;;;29.70;86.40;;;;;;5105144;28;20065;-42
2021/10/05 02:48:55;;;;;;;9.85;4.50;;;29.70;86.50;;;;;;5105397;28;20093;-41
2021/10/05 02:51:21;;;;;;;9.73;4.20;;;29.60;86.50;;;;;;5105277;28;20208;-42
2021/10/05 02:53:48;;;;;;;12.57;5.63;;;29.70;86.70;;;;;;5105277;28;20227;-43
2021/10/05 02:56:15;;;;;;;13.23;5.75;;;29.70;87.40;;;;;;5105158;28;20079;-42
2021/10/05 02:58:42;;;;;;;10.38;4.70;;;29.60;87.50;;;;;;5105312;28;20050;-41
2021/10/05 03:01:08;;;;;;;14.85;4.88;;;29.60;87.80;;;;;;5104772;28;20095;-43
2021/10/05 03:03:35;;;;;;;10.73;4.65;;;29.60;88.00;;;;;;5105236;28;20047;-45
2021/10/05 03:06:02;;;;;;;17.02;4.60;;;29.60;88.00;;;;;;5104914;28;20057;-44
2021/10/05 03:08:29;;;;;;;10.43;4.53;;;29.60;88.10;;;;;;5103672;28;20047;-43
2021/10/05 03:10:57;;;;;;;11.45;4.50;;;29.60;88.20;;;;;;5104780;28;20027;-43
2021/10/05 03:13:24;;;;;;;11.88;4.22;;;29.60;88.40;;;;;;5104849;28;20036;-42
2021/10/05 03:15:52;;;;;;;12.35;4.35;;;29.60;88.40;;;;;;5104519;28;20091;-43
2021/10/05 03:18:18;;;;;;;11.77;4.80;;;29.60;88.50;;;;;;5104907;28;20031;-43
2021/10/05 03:20:45;;;;;;;9.07;3.55;;;29.50;88.60;;;;;;5104689;28;20204;-44
2021/10/05 03:23:11;;;;;;;10.40;3.78;;;29.50;88.70;;;;;;5103853;28;20091;-43
2021/10/05 03:25:38;;;;;;;8.00;3.72;;;29.50;88.70;;;;;;5104580;28;20023;-43
2021/10/05 03:28:05;;;;;;;12.45;3.63;;;29.50;88.80;;;;;;5104571;28;20038;-44
2021/10/05 03:30:31;;;;;;;8.07;3.75;;;29.50;88.90;;;;;;5104374;28;20079;-48
2021/10/05 03:32:58;;;;;;;10.35;3.53;;;29.50;89.10;;;;;;5104422;28;20040;-48
2021/10/05 03:35:24;;;;;;;9.32;3.95;;;29.50;89.20;;;;;;5104353;28;20019;-45
2021/10/05 03:37:51;;;;;;;9.65;4.10;;;29.50;89.50;;;;;;5104348;28;20019;-48
2021/10/05 03:40:18;;;;;;;10.98;3.80;;;29.50;89.60;;;;;;5104346;28;20012;-44
2021/10/05 03:42:44;;;;;;;10.88;3.92;;;29.50;89.60;;;;;;5104272;28;20174;-44
2021/10/05 03:45:11;;;;;;;10.27;3.90;;;29.50;89.70;;;;;;5104174;28;20051;-45
2021/10/05 03:47:38;;;;;;;8.18;3.38;;;29.50;89.70;;;;;;5104205;28;20012;-44
2021/10/05 03:50:06;;;;;;;10.15;3.70;;;29.40;89.50;;;;;;5104115;28;20016;-43
2021/10/05 03:52:33;;;;;;;6.95;3.80;;;29.40;89.60;;;;;;5103930;28;20043;-44
2021/10/05 03:55:00;;;;;;;9.63;3.33;;;29.40;89.40;;;;;;5104119;28;20019;-44
2021/10/05 03:57:26;;;;;;;6.68;3.58;;;29.40;89.40;;;;;;5104157;28;20062;-47
2021/10/05 03:59:53;;;;;;;8.10;3.33;;;29.40;89.40;;;;;;5104053;28;20046;-42
2021/10/05 04:02:20;;;;;;;5.78;3.10;;;29.40;89.30;;;;;;5103848;28;20410;-44
2021/10/05 04:04:46;;;;;;;7.88;3.55;;;29.40;89.20;;;;;;5104043;28;20024;-46
2021/10/05 04:07:13;;;;;;;6.07;3.38;;;29.40;89.20;;;;;;5104005;28;20027;-49
2021/10/05 04:09:39;;;;;;;6.28;3.17;;;29.40;89.10;;;;;;5104438;28;20319;-41
2021/10/05 04:12:07;;;;;;;8.85;2.95;;;29.40;88.90;;;;;;5104308;28;20028;-48
2021/10/05 04:14:34;;;;;;;6.30;2.95;;;29.40;88.80;;;;;;5104280;28;20306;-47
2021/10/05 04:17:01;;;;;;;4.78;2.63;;;29.40;88.60;;;;;;5104389;28;20280;-45
2021/10/05 04:19:28;;;;;;;4.15;2.65;;;29.40;88.50;;;;;;5103849;28;20027;-41
2021/10/05 04:21:54;;;;;;;5.05;2.72;;;29.40;88.60;;;;;;5103828;28;20021;-42
2021/10/05 04:24:21;;;;;;;4.15;2.63;;;29.40;88.60;;;;;;5104166;28;20237;-41
2021/10/05 04:26:48;;;;;;;5.35;2.65;;;29.30;88.60;;;;;;5103892;28;20024;-44
2021/10/05 04:29:15;;;;;;;4.10;2.58;;;29.30;88.60;;;;;;5104209;28;20028;-44
2021/10/05 04:31:41;;;;;;;6.65;2.92;;;29.30;89.00;;;;;;5103686;28;20245;-43
2021/10/05 04:34:09;;;;;;;5.88;2.80;;;29.30;88.40;;;;;;5105473;28;20027;-42
2021/10/05 04:36:35;;;;;;;4.20;2.47;;;29.30;88.20;;;;;;5107784;28;20024;-44
2021/10/05 04:39:02;;;;;;;4.05;2.58;;;29.30;88.10;;;;;;5107962;28;20045;-46
2021/10/05 04:41:29;;;;;;;5.40;2.25;;;29.30;88.00;;;;;;5107849;28;20058;-43
2021/10/05 04:43:55;;;;;;;8.65;3.08;;;29.20;87.90;;;;;;5107988;28;20096;-41
2021/10/05 04:46:22;;;;;;;8.95;3.22;;;29.20;88.30;;;;;;5106370;28;20263;-42
2021/10/05 04:48:49;;;;;;;7.47;2.85;;;29.20;88.50;;;;;;5107952;28;20095;-40
2021/10/05 04:51:16;;;;;;;10.43;3.03;;;29.20;88.50;;;;;;5107583;28;20024;-41
2021/10/05 04:53:42;;;;;;;11.57;3.40;;;29.20;88.60;;;;;;5107536;28;20027;-42
2021/10/05 04:56:09;;;;;;;12.95;3.70;;;29.20;88.90;;;;;;5107491;28;20335;-44
2021/10/05 04:58:35;;;;;;;11.90;3.67;;;29.20;89.00;;;;;;5107658;28;20035;-44
2021/10/05 05:01:02;;;;;;;12.30;3.38;;;29.20;88.70;;;;;;5107081;28;20132;-47
2021/10/05 05:03:47;;;;;;;9.80;3.08;;;29.20;88.90;;;;;;5107245;28;20024;-48
2021/10/05 05:06:13;;;;;;;12.10;2.63;;;29.20;89.10;;;;;;5107100;28;20019;-49
2021/10/05 05:08:40;;;;;;;17.50;2.95;;;29.10;89.10;;;;;;5106398;28;20368;-51
